Time;durP1;ratioP1;P1;durP2;ratioP2;P2;SDS_P1;SDS_P2;PMS_P1;PMS_P2;Temp;Humidity;BMP_temperature;BMP_pressure;BME280_temperature;BME280_humidity;BME280_pressure;Samples;Min_cycle;Max_cycle;Signal;HPM_P1;HPM_P2
2023/06/05 00:00:09;0.00;0.00;0.62;0.00;0.00;0.62;3.20;2.10;;;27.50;19.00;;;;;;2263915;61;20372;-62
2023/06/05 00:02:57;0.00;0.00;0.62;0.00;0.00;0.62;2.13;1.67;;;27.50;19.10;;;;;;2263723;61;20411;-63
2023/06/05 00:05:42;0.00;0.00;0.62;0.00;0.00;0.62;2.87;1.80;;;27.50;19.00;;;;;;2260837;61;20385;-70
2023/06/05 00:08:26;0.00;0.00;0.62;0.00;0.00;0.62;2.43;1.97;;;27.50;19.00;;;;;;2263872;61;20880;-63
2023/06/05 00:11:14;0.00;0.00;0.62;0.00;0.00;0.62;2.43;1.67;;;27.50;19.00;;;;;;2263883;61;20519;-64
2023/06/05 00:13:59;0.00;0.00;0.62;0.00;0.00;0.62;2.20;1.60;;;27.50;19.00;;;;;;2264267;61;20772;-63
2023/06/05 00:16:45;0.00;0.00;0.62;0.00;0.00;0.62;2.70;1.80;;;27.50;19.00;;;;;;2264669;61;20368;-64
2023/06/05 00:19:31;0.00;0.00;0.62;0.00;0.00;0.62;2.60;1.63;;;27.40;18.90;;;;;;2264467;61;20373;-64
2023/06/05 00:22:15;0.00;0.00;0.62;0.00;0.00;0.62;2.10;1.67;;;27.40;18.90;;;;;;2264770;61;20428;-63
2023/06/05 00:25:00;0.00;0.00;0.62;0.00;0.00;0.62;2.53;1.80;;;27.40;18.90;;;;;;2264614;61;20396;-63
2023/06/05 00:27:45;0.00;0.00;0.62;0.00;0.00;0.62;1.87;1.60;;;27.40;18.90;;;;;;2264779;61;20406;-63
2023/06/05 00:30:30;0.00;0.00;0.62;0.00;0.00;0.62;2.90;1.80;;;27.40;19.00;;;;;;2264224;61;20863;-63
2023/06/05 00:33:20;0.00;0.00;0.62;0.00;0.00;0.62;2.53;1.80;;;27.40;18.90;;;;;;2264544;61;20372;-63
2023/06/05 00:36:05;0.00;0.00;0.62;0.00;0.00;0.62;2.20;1.63;;;27.40;19.00;;;;;;2264659;61;20423;-63
2023/06/05 00:38:50;0.00;0.00;0.62;0.00;0.00;0.62;2.10;1.70;;;27.40;19.00;;;;;;2264768;61;20400;-63
2023/06/05 00:41:37;0.00;0.00;0.62;0.00;0.00;0.62;2.50;1.73;;;27.40;19.00;;;;;;2264270;61;20473;-63
2023/06/05 00:44:22;0.00;0.00;0.62;0.00;0.00;0.62;3.00;2.20;;;27.40;19.00;;;;;;2264392;61;20954;-63
2023/06/05 00:47:09;0.00;0.00;0.62;0.00;0.00;0.62;2.23;1.70;;;27.40;19.00;;;;;;2264296;61;20884;-62
2023/06/05 00:49:56;0.00;0.00;0.62;0.00;0.00;0.62;2.47;1.80;;;27.40;19.00;;;;;;2264174;61;20361;-62
2023/06/05 00:52:42;0.00;0.00;0.62;0.00;0.00;0.62;2.53;1.53;;;27.40;19.00;;;;;;2263740;61;20804;-63
2023/06/05 00:55:27;0.00;0.00;0.62;0.00;0.00;0.62;1.97;1.73;;;27.40;19.00;;;;;;2264523;61;20423;-63
2023/06/05 00:58:13;0.00;0.00;0.62;0.00;0.00;0.62;2.83;2.20;;;27.40;19.00;;;;;;2264288;61;20482;-63
2023/06/05 01:00:58;0.00;0.00;0.62;0.00;0.00;0.62;2.33;1.73;;;27.40;19.00;;;;;;2263632;61;20412;-70
2023/06/05 01:03:44;0.00;0.00;0.62;0.00;0.00;0.62;2.90;1.80;;;27.40;19.00;;;;;;2263844;61;20429;-63
2023/06/05 01:06:33;0.00;0.00;0.62;0.00;0.00;0.62;2.57;1.80;;;27.40;19.00;;;;;;2264334;61;20365;-63
2023/06/05 01:09:19;0.00;0.00;0.62;0.00;0.00;0.62;2.23;1.53;;;27.30;19.00;;;;;;2264189;61;20369;-62
2023/06/05 01:12:16;0.00;0.00;0.62;0.00;0.00;0.62;1.90;1.50;;;27.30;19.00;;;;;;2264262;61;20407;-62
2023/06/05 01:15:05;0.00;0.00;0.62;0.00;0.00;0.62;2.10;1.60;;;27.30;19.00;;;;;;2266839;61;20427;-64
2023/06/05 01:17:51;0.00;0.00;0.62;0.00;0.00;0.62;2.17;1.97;;;27.40;19.10;;;;;;2264254;61;20361;-63
2023/06/05 01:20:38;0.00;0.00;0.62;0.00;0.00;0.62;2.67;1.80;;;27.30;19.00;;;;;;2264040;61;20450;-62
2023/06/05 01:23:25;0.00;0.00;0.62;0.00;0.00;0.62;2.87;2.13;;;27.30;19.00;;;;;;2263848;61;20361;-63
2023/06/05 01:26:17;0.00;0.00;0.62;0.00;0.00;0.62;1.90;1.40;;;27.30;19.00;;;;;;2263795;61;20388;-63
2023/06/05 01:29:06;0.00;0.00;0.62;0.00;0.00;0.62;2.23;1.83;;;27.30;19.20;;;;;;2264207;61;20381;-63
2023/06/05 01:31:59;0.00;0.00;0.62;0.00;0.00;0.62;2.30;2.07;;;27.30;19.00;;;;;;2263800;61;20385;-63
2023/06/05 01:34:48;0.00;0.00;0.62;0.00;0.00;0.62;2.40;1.83;;;27.30;19.00;;;;;;2261376;61;20365;-64
2023/06/05 01:37:36;0.00;0.00;0.62;0.00;0.00;0.62;2.60;1.90;;;27.30;19.10;;;;;;2264021;61;20377;-63
2023/06/05 01:40:25;0.00;0.00;0.62;0.00;0.00;0.62;2.10;1.90;;;27.30;19.10;;;;;;2264702;61;20385;-64
2023/06/05 01:43:12;0.00;0.00;0.62;0.00;0.00;0.62;2.50;2.00;;;27.30;19.10;;;;;;2264517;61;20373;-63
2023/06/05 01:45:58;0.00;0.00;0.62;0.00;0.00;0.62;2.37;1.60;;;27.30;19.10;;;;;;2264907;61;20408;-63
2023/06/05 01:48:44;0.00;0.00;0.62;0.00;0.00;0.62;2.63;2.10;;;27.30;19.10;;;;;;2264298;61;20429;-64
2023/06/05 01:51:29;0.00;0.00;0.62;0.00;0.00;0.62;2.37;2.00;;;27.30;19.10;;;;;;2264138;61;20385;-65
2023/06/05 01:54:15;0.00;0.00;0.62;0.00;0.00;0.62;2.30;1.70;;;27.20;19.00;;;;;;2264531;61;20365;-63
2023/06/05 01:57:04;0.00;0.00;0.62;0.00;0.00;0.62;2.60;1.70;;;27.20;19.00;;;;;;2263856;61;20449;-64
2023/06/05 01:59:49;0.00;0.00;0.62;0.00;0.00;0.62;2.20;1.60;;;27.20;19.00;;;;;;2261045;61;20392;-63
2023/06/05 02:02:35;0.00;0.00;0.62;0.00;0.00;0.62;2.10;1.80;;;27.20;19.00;;;;;;2264109;61;20404;-63
2023/06/05 02:05:20;0.00;0.00;0.62;0.00;0.00;0.62;1.87;1.50;;;27.20;19.00;;;;;;2264001;61;20453;-64
2023/06/05 02:08:05;0.00;0.00;0.62;0.00;0.00;0.62;2.00;1.50;;;27.20;19.10;;;;;;2261180;61;20384;-64
2023/06/05 02:10:52;0.00;0.00;0.62;0.00;0.00;0.62;2.40;2.03;;;27.20;19.00;;;;;;2264228;61;20400;-64
2023/06/05 02:13:40;0.00;0.00;0.62;0.00;0.00;0.62;2.03;1.60;;;27.20;19.10;;;;;;2264261;61;20365;-63
2023/06/05 02:16:25;0.00;0.00;0.62;0.00;0.00;0.62;2.20;2.00;;;27.20;19.10;;;;;;2263752;61;20404;-63
2023/06/05 02:19:10;0.00;0.00;0.62;0.00;0.00;0.62;2.37;1.83;;;27.20;19.10;;;;;;2264329;61;20361;-62
2023/06/05 02:21:56;0.00;0.00;0.62;0.00;0.00;0.62;3.23;2.37;;;27.20;19.10;;;;;;2260450;61;20449;-63
2023/06/05 02:24:41;0.00;0.00;0.62;0.00;0.00;0.62;1.87;1.40;;;27.20;19.10;;;;;;2264458;61;20905;-65
2023/06/05 02:27:26;0.00;0.00;0.62;0.00;0.00;0.62;2.50;1.67;;;27.20;19.10;;;;;;2264365;61;20404;-64
2023/06/05 02:30:13;0.00;0.00;0.62;0.00;0.00;0.62;2.90;2.23;;;27.20;19.10;;;;;;2264296;61;20392;-63
2023/06/05 02:33:00;0.00;0.00;0.62;0.00;0.00;0.62;2.30;1.80;;;27.20;19.10;;;;;;2264133;61;20721;-64
2023/06/05 02:35:46;0.00;0.00;0.62;0.00;0.00;0.62;2.70;2.10;;;27.20;19.10;;;;;;2263897;61;20380;-63
2023/06/05 02:38:31;0.00;0.00;0.62;0.00;0.00;0.62;2.20;1.90;;;27.20;19.10;;;;;;2263876;61;20377;-66
2023/06/05 02:41:17;0.00;0.00;0.62;0.00;0.00;0.62;2.17;1.87;;;27.20;19.10;;;;;;2263366;61;20532;-63
2023/06/05 02:44:02;0.00;0.00;0.62;0.00;0.00;0.62;2.40;1.93;;;27.10;19.10;;;;;;2260798;61;20404;-63
2023/06/05 02:46:48;0.00;0.00;0.62;0.00;0.00;0.62;2.37;1.90;;;27.10;19.10;;;;;;2263771;61;20364;-63
2023/06/05 02:49:33;0.00;0.00;0.62;0.00;0.00;0.62;2.60;1.67;;;27.20;19.10;;;;;;2263827;61;20373;-63
2023/06/05 02:52:20;0.00;0.00;0.62;0.00;0.00;0.62;2.30;1.73;;;27.20;19.10;;;;;;2263535;61;20421;-63
2023/06/05 02:55:07;0.00;0.00;0.62;0.00;0.00;0.62;2.47;1.97;;;27.10;19.10;;;;;;2263966;61;20365;-64
2023/06/05 02:57:52;0.00;0.00;0.62;0.00;0.00;0.62;2.67;1.90;;;27.10;19.10;;;;;;2261175;61;20365;-63
2023/06/05 03:00:44;0.00;0.00;0.62;0.00;0.00;0.62;2.80;1.83;;;27.10;19.10;;;;;;2263712;61;20373;-62
2023/06/05 03:03:32;0.00;0.00;0.62;0.00;0.00;0.62;2.70;2.00;;;27.10;19.10;;;;;;2263919;61;20415;-64
2023/06/05 03:06:18;0.00;0.00;0.62;0.00;0.00;0.62;2.50;1.90;;;27.10;19.10;;;;;;2263886;61;20433;-63
2023/06/05 03:09:06;0.00;0.00;0.62;0.00;0.00;0.62;2.33;2.07;;;27.10;19.10;;;;;;2263753;61;20396;-62
2023/06/05 03:11:52;0.00;0.00;0.62;0.00;0.00;0.62;2.37;2.07;;;27.10;19.10;;;;;;2263854;61;20436;-63
2023/06/05 03:14:37;0.00;0.00;0.62;0.00;0.00;0.62;2.80;2.10;;;27.10;19.10;;;;;;2263846;61;20364;-63
2023/06/05 03:17:23;0.00;0.00;0.62;0.00;0.00;0.62;2.10;1.70;;;27.00;19.10;;;;;;2263856;61;20384;-64
2023/06/05 03:20:11;0.00;0.00;0.62;0.00;0.00;0.62;2.30;1.90;;;27.00;19.10;;;;;;2263854;61;20377;-63
2023/06/05 03:22:56;0.00;0.00;0.62;0.00;0.00;0.62;1.77;1.43;;;27.00;19.10;;;;;;2263354;61;20928;-63
2023/06/05 03:25:42;0.00;0.00;0.62;0.00;0.00;0.62;2.17;1.80;;;27.00;19.10;;;;;;2264070;61;20412;-64
2023/06/05 03:28:27;0.00;0.00;0.62;0.00;0.00;0.62;3.67;2.20;;;27.00;19.70;;;;;;2263862;61;20352;-63
2023/06/05 03:31:15;0.00;0.00;0.62;0.00;0.00;0.62;2.97;2.50;;;27.00;19.10;;;;;;2264205;61;20431;-62
2023/06/05 03:34:04;0.00;0.00;0.62;0.00;0.00;0.62;3.00;2.20;;;27.00;19.10;;;;;;2263769;61;20376;-63
2023/06/05 03:36:51;0.00;0.00;0.62;0.00;0.00;0.62;2.13;1.90;;;27.00;19.20;;;;;;2263864;61;20437;-63
2023/06/05 03:39:37;0.00;0.00;0.62;0.00;0.00;0.62;2.63;1.93;;;27.00;19.20;;;;;;2263764;61;20373;-63
2023/06/05 03:42:22;0.00;0.00;0.62;0.00;0.00;0.62;2.57;1.70;;;27.00;19.20;;;;;;2264023;61;20381;-63
2023/06/05 03:45:08;0.00;0.00;0.62;0.00;0.00;0.62;2.30;1.80;;;27.00;19.20;;;;;;2263450;61;20393;-63
2023/06/05 03:47:59;0.00;0.00;0.62;0.00;0.00;0.62;2.50;2.13;;;27.00;19.20;;;;;;2263313;61;20864;-64
2023/06/05 03:50:44;0.00;0.00;0.62;0.00;0.00;0.62;2.47;1.67;;;27.00;19.20;;;;;;2263489;61;20404;-63
2023/06/05 03:53:30;0.00;0.00;0.62;0.00;0.00;0.62;2.23;1.83;;;27.00;19.20;;;;;;2263386;61;20411;-63
2023/06/05 03:56:15;0.00;0.00;0.62;0.00;0.00;0.62;2.57;2.20;;;27.00;19.20;;;;;;2263663;61;20369;-63
2023/06/05 03:59:08;0.00;0.00;0.62;0.00;0.00;0.62;4.80;2.30;;;26.90;19.20;;;;;;2263748;61;20360;-64
2023/06/05 04:01:59;0.00;0.00;0.62;0.00;0.00;0.62;2.20;1.63;;;27.00;19.20;;;;;;2263587;61;20389;-64
2023/06/05 04:04:44;0.00;0.00;0.62;0.00;0.00;0.62;3.07;2.10;;;26.90;19.20;;;;;;2263085;61;20389;-62
2023/06/05 04:07:29;0.00;0.00;0.62;0.00;0.00;0.62;2.20;1.87;;;26.90;19.20;;;;;;2263147;61;20813;-63
2023/06/05 04:10:15;0.00;0.00;0.62;0.00;0.00;0.62;2.23;1.83;;;26.90;19.20;;;;;;2263221;61;20417;-63
2023/06/05 04:13:00;0.00;0.00;0.62;0.00;0.00;0.62;2.40;1.90;;;26.90;19.20;;;;;;2263383;61;20377;-64
2023/06/05 04:15:45;0.00;0.00;0.62;0.00;0.00;0.62;2.70;2.20;;;26.90;19.20;;;;;;2263541;61;20423;-63
2023/06/05 04:18:31;0.00;0.00;0.62;0.00;0.00;0.62;2.43;2.00;;;26.90;19.30;;;;;;2260541;61;20639;-63
2023/06/05 04:21:15;0.00;0.00;0.62;0.00;0.00;0.62;2.87;1.60;;;26.90;19.80;;;;;;2262805;61;20384;-64
2023/06/05 04:24:00;0.00;0.00;0.62;0.00;0.00;0.62;2.40;1.90;;;26.90;19.40;;;;;;2263800;61;20364;-63
2023/06/05 04:26:47;0.00;0.00;0.62;0.00;0.00;0.62;1.77;1.30;;;26.90;19.30;;;;;;2263677;61;20358;-63
2023/06/05 04:29:33;0.00;0.00;0.62;0.00;0.00;0.62;2.30;1.93;;;26.90;19.30;;;;;;2263686;61;20423;-63
2023/06/05 04:32:19;0.00;0.00;0.62;0.00;0.00;0.62;1.90;1.57;;;26.90;19.30;;;;;;2263027;61;20940;-64
2023/06/05 04:35:05;0.00;0.00;0.62;0.00;0.00;0.62;3.40;1.90;;;26.90;19.30;;;;;;2263180;61;20415;-63
2023/06/05 04:37:50;0.00;0.00;0.62;0.00;0.00;0.62;2.00;1.80;;;26.80;19.30;;;;;;2263550;61;20396;-63
2023/06/05 04:40:35;0.00;0.00;0.62;0.00;0.00;0.62;2.10;1.80;;;26.90;19.40;;;;;;2263367;61;20393;-62
2023/06/05 04:43:22;0.00;0.00;0.62;0.00;0.00;0.62;1.93;1.60;;;26.80;19.30;;;;;;2264179;61;20372;-63
2023/06/05 04:46:08;0.00;0.00;0.62;0.00;0.00;0.62;3.00;1.97;;;26.80;19.30;;;;;;2260992;61;20396;-63
2023/06/05 04:48:55;0.00;0.00;0.62;0.00;0.00;0.62;2.10;1.70;;;26.80;19.30;;;;;;2260611;61;20384;-63
2023/06/05 04:51:40;0.00;0.00;0.62;0.00;0.00;0.62;1.90;1.57;;;26.80;19.30;;;;;;2263573;61;21031;-62
2023/06/05 04:54:27;0.00;0.00;0.62;0.00;0.00;0.62;5.13;2.33;;;26.80;19.30;;;;;;2263769;61;20414;-63
2023/06/05 04:57:12;0.00;0.00;0.62;0.00;0.00;0.62;3.00;2.10;;;26.80;19.30;;;;;;2263688;61;20924;-62
2023/06/05 04:59:58;0.00;0.00;0.62;0.00;0.00;0.62;2.33;1.77;;;26.80;19.30;;;;;;2264397;61;20365;-63
2023/06/05 05:02:44;0.00;0.00;0.62;0.00;0.00;0.62;2.50;1.97;;;26.80;19.40;;;;;;2264087;61;20966;-63
2023/06/05 05:05:29;0.00;0.00;0.62;0.00;0.00;0.62;2.50;2.20;;;26.80;19.40;;;;;;2263713;61;20439;-64
2023/06/05 05:08:14;0.00;0.00;0.62;0.00;0.00;0.62;2.40;1.97;;;26.80;19.40;;;;;;2264782;61;20415;-63
2023/06/05 05:10:59;0.00;0.00;0.62;0.00;0.00;0.62;3.10;1.87;;;26.80;19.40;;;;;;2263866;61;20381;-64
2023/06/05 05:13:45;0.00;0.00;0.62;0.00;0.00;0.62;2.53;1.90;;;26.80;19.40;;;;;;2264245;61;20368;-63
2023/06/05 05:16:31;0.00;0.00;0.62;0.00;0.00;0.62;2.50;2.20;;;26.80;19.40;;;;;;2264799;61;20444;-64
2023/06/05 05:19:15;0.00;0.00;0.62;0.00;0.00;0.62;2.53;2.17;;;26.80;19.50;;;;;;2264783;61;20361;-63
2023/06/05 05:22:00;0.00;0.00;0.62;0.00;0.00;0.62;3.40;1.83;;;26.80;19.50;;;;;;2264229;61;20438;-64
2023/06/05 05:24:46;0.00;0.00;0.62;0.00;0.00;0.62;3.40;2.20;;;26.80;19.50;;;;;;2260875;61;20420;-63
2023/06/05 05:27:30;0.00;0.00;0.62;0.00;0.00;0.62;2.20;1.83;;;26.80;19.50;;;;;;2263953;61;20548;-63
2023/06/05 05:30:15;0.00;0.00;0.62;0.00;0.00;0.62;2.43;2.10;;;26.80;19.50;;;;;;2266600;61;20361;-63
2023/06/05 05:33:02;0.00;0.00;0.62;0.00;0.00;0.62;2.50;2.17;;;26.80;19.50;;;;;;2264296;61;20683;-64
2023/06/05 05:35:48;0.00;0.00;0.62;0.00;0.00;0.62;4.20;2.60;;;26.80;19.50;;;;;;2263833;61;20369;-62
2023/06/05 05:38:34;0.00;0.00;0.62;0.00;0.00;0.62;2.93;2.43;;;26.80;19.50;;;;;;2264079;61;20400;-64
2023/06/05 05:41:20;0.00;0.00;0.62;0.00;0.00;0.62;2.27;2.07;;;26.80;19.50;;;;;;2264167;61;20445;-62
2023/06/05 05:44:06;0.00;0.00;0.62;0.00;0.00;0.62;3.63;2.70;;;26.80;19.50;;;;;;2264645;61;20368;-63
2023/06/05 05:46:51;0.00;0.00;0.62;0.00;0.00;0.62;2.33;1.90;;;26.80;19.50;;;;;;2264373;61;20361;-63
2023/06/05 05:49:37;0.00;0.00;0.62;0.00;0.00;0.62;3.70;2.70;;;26.80;19.60;;;;;;2264137;61;20365;-63
2023/06/05 05:52:22;0.00;0.00;0.62;0.00;0.00;0.62;3.83;2.77;;;26.80;19.60;;;;;;2264104;61;20389;-64
2023/06/05 05:55:08;0.00;0.00;0.62;0.00;0.00;0.62;3.57;2.63;;;26.80;19.60;;;;;;2264564;61;20460;-64
2023/06/05 05:57:53;0.00;0.00;0.62;0.00;0.00;0.62;4.53;3.40;;;26.80;19.60;;;;;;2264316;61;20446;-65
2023/06/05 06:00:38;0.00;0.00;0.62;0.00;0.00;0.62;4.40;2.70;;;26.80;19.60;;;;;;2264460;61;20665;-63
2023/06/05 06:03:23;0.00;0.00;0.62;0.00;0.00;0.62;3.17;2.63;;;26.80;19.60;;;;;;2264312;61;20430;-63
2023/06/05 06:06:10;0.00;0.00;0.62;0.00;0.00;0.62;2.77;2.33;;;26.80;19.60;;;;;;2263793;61;20443;-63
2023/06/05 06:08:54;0.00;0.00;0.62;0.00;0.00;0.62;3.90;2.97;;;26.70;19.60;;;;;;2264703;61;20369;-63
2023/06/05 06:11:39;0.00;0.00;0.62;0.00;0.00;0.62;4.60;3.07;;;26.80;19.70;;;;;;2263192;61;20389;-63
2023/06/05 06:14:24;0.00;0.00;0.62;0.00;0.00;0.62;4.10;3.53;;;26.80;19.70;;;;;;2264865;61;20379;-63
2023/06/05 06:17:10;0.00;0.00;0.62;0.00;0.00;0.62;3.63;3.00;;;26.80;19.70;;;;;;2263875;61;20361;-63
2023/06/05 06:19:57;0.00;0.00;0.62;0.00;0.00;0.62;3.90;3.50;;;26.80;19.70;;;;;;2264214;61;20465;-64
2023/06/05 06:22:43;0.00;0.00;0.62;0.00;0.00;0.62;4.70;4.00;;;26.80;19.80;;;;;;2264321;61;20465;-63
2023/06/05 06:25:31;0.00;0.00;0.62;0.00;0.00;0.62;4.67;3.90;;;26.80;19.80;;;;;;2264319;61;20438;-62
2023/06/05 06:28:16;0.00;0.00;0.62;0.00;0.00;0.62;5.30;4.30;;;26.80;20.30;;;;;;2264020;61;20377;-64
2023/06/05 06:31:01;0.00;0.00;0.62;0.00;0.00;0.62;5.10;4.00;;;26.70;19.70;;;;;;2264413;61;20388;-64
2023/06/05 06:33:46;0.00;0.00;0.62;0.00;0.00;0.62;5.33;4.40;;;26.80;19.80;;;;;;2264284;61;20377;-63
2023/06/05 06:36:31;0.00;0.00;0.62;0.00;0.00;0.62;4.40;3.30;;;26.80;19.80;;;;;;2264442;61;20639;-62
2023/06/05 06:39:18;0.00;0.00;0.62;0.00;0.00;0.62;6.90;4.40;;;26.70;19.80;;;;;;2264425;61;20404;-62
2023/06/05 06:42:03;0.00;0.00;0.62;0.00;0.00;0.62;6.00;4.10;;;26.80;19.80;;;;;;2263539;61;20442;-65
2023/06/05 06:44:55;0.00;0.00;0.62;0.00;0.00;0.62;5.00;4.00;;;26.70;20.30;;;;;;2263565;61;20400;-63
2023/06/05 06:47:41;0.00;0.00;0.62;0.00;0.00;0.62;4.10;3.70;;;26.70;19.80;;;;;;2264006;61;20423;-64
2023/06/05 06:50:26;0.00;0.00;0.62;0.00;0.00;0.62;4.33;3.93;;;26.70;19.80;;;;;;2263424;61;20364;-64
2023/06/05 06:53:11;0.00;0.00;0.62;0.00;0.00;0.62;6.63;4.67;;;26.80;19.90;;;;;;2264047;61;20380;-63
2023/06/05 06:55:57;0.00;0.00;0.62;0.00;0.00;0.62;4.40;4.00;;;26.80;19.90;;;;;;2263855;61;20432;-65
2023/06/05 06:58:42;0.00;0.00;0.62;0.00;0.00;0.62;5.70;4.20;;;26.80;19.90;;;;;;2264243;61;20403;-66
2023/06/05 07:01:28;0.00;0.00;0.62;0.00;0.00;0.62;6.53;5.27;;;26.80;19.90;;;;;;2263790;61;20389;-63
2023/06/05 07:04:16;0.00;0.00;0.62;0.00;0.00;0.62;6.10;5.13;;;26.70;19.90;;;;;;2263747;61;20364;-62
2023/06/05 07:07:01;0.00;0.00;0.62;0.00;0.00;0.62;6.03;5.13;;;26.80;19.90;;;;;;2264234;61;20353;-62
2023/06/05 07:09:48;0.00;0.00;0.62;0.00;0.00;0.62;6.30;5.10;;;26.70;19.90;;;;;;2264223;61;20360;-63
2023/06/05 07:12:34;0.00;0.00;0.62;0.00;0.00;0.62;6.30;5.30;;;26.80;19.90;;;;;;2263803;61;20499;-62
2023/06/05 07:15:19;0.00;0.00;0.62;0.00;0.00;0.62;6.47;5.47;;;26.80;20.00;;;;;;2264290;61;20353;-63
2023/06/05 07:18:04;0.00;0.00;0.62;0.00;0.00;0.62;6.73;5.40;;;26.80;19.90;;;;;;2264043;61;20912;-62
2023/06/05 07:20:49;0.00;0.00;0.62;0.00;0.00;0.62;7.67;6.57;;;26.80;19.90;;;;;;2263833;61;20419;-63
2023/06/05 07:23:34;0.00;0.00;0.62;0.00;0.00;0.62;8.03;7.07;;;26.80;20.00;;;;;;2263731;61;20450;-63
2023/06/05 07:26:20;0.00;0.00;0.62;0.00;0.00;0.62;7.47;6.67;;;26.80;20.00;;;;;;2263749;61;20420;-63
2023/06/05 07:29:06;0.00;0.00;0.62;0.00;0.00;0.62;6.83;5.57;;;26.80;20.00;;;;;;2264095;61;20412;-64
2023/06/05 07:31:52;0.00;0.00;0.62;0.00;0.00;0.62;8.00;5.70;;;26.80;20.00;;;;;;2264051;61;20381;-63
2023/06/05 07:34:37;0.00;0.00;0.62;0.00;0.00;0.62;7.63;6.00;;;26.80;20.00;;;;;;2264098;61;20397;-64
2023/06/05 07:37:21;0.00;0.00;0.62;0.00;0.00;0.62;7.20;5.87;;;26.80;20.00;;;;;;2263667;61;20416;-63
2023/06/05 07:40:08;0.00;0.00;0.62;0.00;0.00;0.62;6.00;5.40;;;26.80;20.00;;;;;;2264341;61;20384;-63
2023/06/05 07:42:53;0.00;0.00;0.62;0.00;0.00;0.62;6.00;5.40;;;26.80;20.00;;;;;;2263396;61;20400;-64
2023/06/05 07:45:40;0.00;0.00;0.62;0.00;0.00;0.62;6.67;6.00;;;26.80;20.00;;;;;;2264260;61;20499;-63
2023/06/05 07:48:25;0.00;0.00;0.62;0.00;0.00;0.62;5.10;4.60;;;26.80;20.00;;;;;;2263689;61;20373;-64
2023/06/05 07:51:10;0.00;0.00;0.62;0.00;0.00;0.62;5.80;5.03;;;26.80;20.00;;;;;;2263532;61;20431;-66
2023/06/05 07:53:54;0.00;0.00;0.62;0.00;0.00;0.62;6.33;5.40;;;26.80;20.00;;;;;;2263951;61;20360;-63
2023/06/05 07:56:40;0.00;0.00;0.62;0.00;0.00;0.62;6.20;5.40;;;26.80;20.10;;;;;;2263960;61;20412;-64
2023/06/05 07:59:27;0.00;0.00;0.62;0.00;0.00;0.62;7.00;5.37;;;26.80;20.10;;;;;;2263709;61;20380;-63
2023/06/05 08:02:14;0.00;0.00;0.62;0.00;0.00;0.62;6.40;5.23;;;26.80;20.10;;;;;;2263003;61;20388;-63
2023/06/05 08:04:59;0.00;0.00;0.62;0.00;0.00;0.62;6.90;5.80;;;26.80;20.10;;;;;;2263935;61;20436;-63
2023/06/05 08:07:43;0.00;0.00;0.62;0.00;0.00;0.62;7.27;5.70;;;26.80;20.10;;;;;;2263843;61;20368;-64
2023/06/05 08:10:28;0.00;0.00;0.62;0.00;0.00;0.62;5.33;4.83;;;26.80;20.10;;;;;;2263376;61;20384;-64
2023/06/05 08:13:13;0.00;0.00;0.62;0.00;0.00;0.62;5.70;4.90;;;26.80;20.10;;;;;;2263944;61;20504;-64
2023/06/05 08:15:57;0.00;0.00;0.62;0.00;0.00;0.62;6.43;4.60;;;26.80;20.10;;;;;;2264028;61;20449;-63
2023/06/05 08:18:43;0.00;0.00;0.62;0.00;0.00;0.62;5.53;4.83;;;26.80;20.10;;;;;;2263887;61;20385;-64
2023/06/05 08:21:28;0.00;0.00;0.62;0.00;0.00;0.62;6.20;5.03;;;26.80;20.10;;;;;;2263816;61;20389;-64
2023/06/05 08:24:13;0.00;0.00;0.62;0.00;0.00;0.62;6.13;5.53;;;26.80;20.10;;;;;;2263613;61;20966;-64
2023/06/05 08:26:59;0.00;0.00;0.62;0.00;0.00;0.62;5.33;4.60;;;26.80;20.10;;;;;;2263876;61;20366;-64
2023/06/05 08:29:44;0.00;0.00;0.62;0.00;0.00;0.62;7.00;6.10;;;26.80;20.10;;;;;;2263761;61;20365;-65
2023/06/05 08:32:28;0.00;0.00;0.62;0.00;0.00;0.62;6.37;5.03;;;26.80;20.10;;;;;;2263447;61;20385;-63
2023/06/05 08:35:14;0.00;0.00;0.62;0.00;0.00;0.62;5.70;5.00;;;26.80;20.10;;;;;;2264513;61;20407;-63
2023/06/05 08:37:59;0.00;0.00;0.62;0.00;0.00;0.62;6.00;4.80;;;26.80;20.20;;;;;;2264671;61;20381;-63
2023/06/05 08:40:50;0.00;0.00;0.62;0.00;0.00;0.62;4.97;3.97;;;26.80;20.20;;;;;;2263938;61;20396;-63
2023/06/05 08:43:36;0.00;0.00;0.62;0.00;0.00;0.62;4.70;4.17;;;26.80;20.20;;;;;;2264740;61;20415;-63
2023/06/05 08:46:22;0.00;0.00;0.62;0.00;0.00;0.62;4.57;4.10;;;26.80;20.20;;;;;;2264559;61;20451;-66
2023/06/05 08:49:11;0.00;0.00;0.62;0.00;0.00;0.62;6.17;4.30;;;26.80;20.20;;;;;;2264245;61;20504;-63
2023/06/05 08:52:02;0.00;0.00;0.62;0.00;0.00;0.62;6.37;4.20;;;26.80;20.20;;;;;;2263665;61;20463;-63
2023/06/05 08:54:48;0.00;0.00;0.62;0.00;0.00;0.62;4.57;4.07;;;26.80;20.20;;;;;;2264078;61;20362;-62
2023/06/05 08:57:36;0.00;0.00;0.62;0.00;0.00;0.62;4.70;4.00;;;26.80;20.20;;;;;;2264392;61;20365;-64
2023/06/05 09:00:22;0.00;0.00;0.62;0.00;0.00;0.62;4.03;3.50;;;26.80;20.20;;;;;;2263956;61;20360;-64
2023/06/05 09:03:15;0.00;0.00;0.62;0.00;0.00;0.62;3.43;2.67;;;26.80;20.30;;;;;;2263649;61;20659;-63
2023/06/05 09:06:02;0.00;0.00;0.62;0.00;0.00;0.62;4.00;3.40;;;26.80;20.30;;;;;;2263753;61;20389;-62
2023/06/05 09:08:49;0.00;0.00;0.62;0.00;0.00;0.62;5.10;3.50;;;26.80;20.30;;;;;;2264175;61;20365;-64
2023/06/05 09:11:34;0.00;0.00;0.62;0.00;0.00;0.62;3.80;3.40;;;26.80;20.30;;;;;;2264158;61;20384;-64
2023/06/05 09:14:26;0.00;0.00;0.62;0.00;0.00;0.62;3.40;2.90;;;26.80;20.30;;;;;;2264597;61;20397;-64
2023/06/05 09:17:14;0.00;0.00;0.62;0.00;0.00;0.62;3.80;3.37;;;26.80;20.30;;;;;;2263793;61;20972;-63
2023/06/05 09:20:00;0.00;0.00;0.62;0.00;0.00;0.62;3.70;3.23;;;26.90;20.40;;;;;;2264257;61;20429;-62
2023/06/05 09:22:45;0.00;0.00;0.62;0.00;0.00;0.62;4.30;3.10;;;26.80;20.40;;;;;;2263855;61;20381;-64
2023/06/05 09:25:53;0.00;0.00;0.62;0.00;0.00;0.62;4.30;3.50;;;26.80;20.30;;;;;;2264101;61;20920;-63
2023/06/05 09:28:53;0.00;0.00;0.62;0.00;0.00;0.62;4.70;2.73;;;26.90;20.40;;;;;;2264106;61;20392;-64
2023/06/05 09:31:42;0.00;0.00;0.62;0.00;0.00;0.62;3.70;3.07;;;26.90;20.40;;;;;;2263577;61;20408;-63
2023/06/05 09:34:28;0.00;0.00;0.62;0.00;0.00;0.62;3.60;3.10;;;26.90;20.40;;;;;;2263701;61;20801;-64
2023/06/05 09:37:13;0.00;0.00;0.62;0.00;0.00;0.62;2.87;2.53;;;26.90;20.40;;;;;;2264826;61;20361;-61
2023/06/05 09:39:58;0.00;0.00;0.62;0.00;0.00;0.62;2.80;2.30;;;26.90;20.40;;;;;;2262689;61;20415;-63
2023/06/05 09:42:44;0.00;0.00;0.62;0.00;0.00;0.62;3.97;2.47;;;26.90;20.40;;;;;;2263482;61;20416;-61
2023/06/05 09:45:42;0.00;0.00;0.62;0.00;0.00;0.62;3.07;2.30;;;26.90;20.40;;;;;;2263174;61;20430;-63
2023/06/05 09:48:27;0.00;0.00;0.62;0.00;0.00;0.62;5.53;2.53;;;26.90;20.50;;;;;;2263188;61;20377;-61
2023/06/05 09:51:13;0.00;0.00;0.62;0.00;0.00;0.62;2.67;2.20;;;26.90;20.50;;;;;;2263429;61;20389;-62
2023/06/05 09:53:58;0.00;0.00;0.62;0.00;0.00;0.62;3.73;2.50;;;27.00;20.50;;;;;;2263354;61;20369;-61
2023/06/05 09:56:56;0.00;0.00;0.62;0.00;0.00;0.62;2.70;2.30;;;26.90;20.50;;;;;;2262978;61;20396;-62
2023/06/05 09:59:50;0.00;0.00;0.62;0.00;0.00;0.62;2.50;2.10;;;26.90;20.50;;;;;;2263828;61;20368;-63
2023/06/05 10:02:42;0.00;0.00;0.62;0.00;0.00;0.62;2.43;1.70;;;26.90;20.40;;;;;;2263742;61;20397;-62
2023/06/05 10:06:02;0.00;0.00;0.62;0.00;0.00;0.62;2.50;1.90;;;27.00;20.50;;;;;;2263022;61;20394;-61
2023/06/05 10:08:55;0.00;0.00;0.62;0.00;0.00;0.62;2.60;1.50;;;27.00;20.50;;;;;;2260290;61;20391;-61
2023/06/05 10:11:41;0.00;0.00;0.62;0.00;0.00;0.62;2.73;2.20;;;27.00;20.40;;;;;;2263254;61;20381;-61
2023/06/05 10:14:27;0.00;0.00;0.62;0.00;0.00;0.62;2.13;1.70;;;27.00;20.40;;;;;;2263820;61;20372;-63
2023/06/05 10:17:19;0.00;0.00;0.62;0.00;0.00;0.62;2.00;1.70;;;27.00;20.40;;;;;;2262747;61;20943;-62
2023/06/05 10:33:27;0.00;0.00;0.62;0.00;0.00;0.62;1.80;1.50;;;27.00;19.90;;;;;;1651479;74;20511;-64
2023/06/05 10:36:39;0.00;0.00;0.62;0.00;0.00;0.62;2.13;1.60;;;27.20;20.20;;;;;;2259665;61;20442;-61
2023/06/05 10:39:30;0.00;0.00;0.62;0.00;0.00;0.62;2.57;1.70;;;27.20;20.10;;;;;;2259577;61;20357;-63
2023/06/05 10:42:23;0.00;0.00;0.62;0.00;0.00;0.62;1.90;1.53;;;27.20;20.10;;;;;;2258131;61;20381;-61
2023/06/05 10:45:09;0.00;0.00;0.62;0.00;0.00;0.62;2.47;1.70;;;27.30;20.10;;;;;;2259501;61;20420;-63
2023/06/05 10:47:54;0.00;0.00;0.62;0.00;0.00;0.62;2.20;1.73;;;27.20;19.90;;;;;;2259033;61;20377;-63
2023/06/05 10:50:41;0.00;0.00;0.62;0.00;0.00;0.62;2.40;2.10;;;27.20;19.70;;;;;;2258782;61;20392;-62
2023/06/05 10:53:47;0.00;0.00;0.62;0.00;0.00;0.62;2.40;1.87;;;27.30;19.70;;;;;;2258619;61;20430;-60
2023/06/05 10:57:02;0.00;0.00;0.62;0.00;0.00;0.62;1.83;1.47;;;27.30;19.80;;;;;;2259027;61;20364;-62
2023/06/05 11:00:06;0.00;0.00;0.62;0.00;0.00;0.62;2.63;1.30;;;27.30;19.80;;;;;;2259002;61;20420;-63
2023/06/05 11:02:53;0.00;0.00;0.62;0.00;0.00;0.62;3.40;1.90;;;27.20;19.70;;;;;;2259050;61;20380;-60
2023/06/05 11:06:12;0.00;0.00;0.62;0.00;0.00;0.62;2.17;1.60;;;27.30;19.80;;;;;;2259226;61;20453;-61
2023/06/05 11:09:09;0.00;0.00;0.62;0.00;0.00;0.62;2.80;2.00;;;27.30;19.70;;;;;;2259564;61;20393;-61
2023/06/05 11:12:01;0.00;0.00;0.62;0.00;0.00;0.62;2.10;1.60;;;27.20;19.70;;;;;;2257057;61;21413;-63